Time;durP1;ratioP1;P1;durP2;ratioP2;P2;SDS_P1;SDS_P2;PMS_P1;PMS_P2;Temp;Humidity;BMP_temperature;BMP_pressure;BME280_temperature;BME280_humidity;BME280_pressure;Samples;Min_cycle;Max_cycle;Signal;HPM_P1;HPM_P2
2022/09/20 00:00:04;;;;;;;;;1.00;1.00;;;;;16.27;45.12;101906.78;5054790;28;45507;-70
2022/09/20 00:02:29;;;;;;;;;0.67;0.67;;;;;16.30;44.98;101920.34;5054720;28;45532;-70
2022/09/20 00:04:55;;;;;;;;;1.33;1.33;;;;;16.32;45.12;101920.38;5054124;28;45389;-76
2022/09/20 00:07:20;;;;;;;;;1.00;1.00;;;;;16.31;44.91;101924.84;5054356;28;48747;-72
2022/09/20 00:09:45;;;;;;;;;1.67;0.67;;;;;16.29;45.48;101920.31;5054439;28;45535;-72
2022/09/20 00:12:11;;;;;;;;;10.67;2.67;;;;;16.27;45.26;101925.66;5053373;28;58312;-71
2022/09/20 00:14:36;;;;;;;;;3.67;1.67;;;;;16.08;45.55;101891.09;5054398;28;45364;-71
2022/09/20 00:17:01;;;;;;;;;1.00;1.00;;;;;16.19;45.59;101913.81;5054552;28;45618;-72
2022/09/20 00:19:27;;;;;;;;;1.00;1.00;;;;;16.23;45.36;101926.47;5054712;28;45369;-74
2022/09/20 00:21:52;;;;;;;;;1.33;0.67;;;;;16.19;45.17;101928.19;5054488;28;66855;-68
2022/09/20 00:24:18;;;;;;;;;4.67;0.67;;;;;16.06;45.90;101904.53;5055651;28;45510;-72
2022/09/20 00:26:43;;;;;;;;;1.67;1.67;;;;;16.03;45.40;101904.44;5055871;28;45367;-69
2022/09/20 00:29:08;;;;;;;;;1.33;1.33;;;;;15.84;45.45;101884.28;5055646;28;45519;-71
2022/09/20 00:31:35;;;;;;;;;3.33;1.67;;;;;16.04;45.97;101919.75;5054149;28;61951;-68
2022/09/20 00:36:45;;;;;;;;;2.00;2.00;;;;;15.78;45.92;101885.03;5053744;28;45503;-68
2022/09/20 00:39:12;;;;;;;;;5.00;2.00;;;;;15.96;45.73;101918.69;5069531;27;45302;-74
2022/09/20 00:41:38;;;;;;;;;2.33;1.67;;;;;15.95;46.14;101919.53;5053608;28;46442;-68
2022/09/20 00:44:38;;;;;;;;;3.00;1.00;;;;;15.94;46.46;101915.03;5053467;28;45460;-77
2022/09/20 00:47:05;;;;;;;;;3.00;0.67;;;;;15.61;45.73;101864.84;5053717;28;45329;-69
2022/09/20 00:49:35;;;;;;;;;2.00;2.00;;;;;15.91;46.20;101909.56;5053955;28;45321;-73
2022/09/20 00:52:01;;;;;;;;;0.67;0.67;;;;;15.91;46.16;101910.47;5055008;28;45451;-72
2022/09/20 00:54:29;;;;;;;;;2.67;1.67;;;;;15.90;46.35;101914.03;5057140;28;45376;-68
2022/09/20 00:56:54;;;;;;;;;4.00;2.00;;;;;15.92;46.19;101911.38;5057476;28;45352;-72
2022/09/20 00:59:29;;;;;;;;;2.00;1.00;;;;;15.46;46.20;101833.97;5057491;28;45492;-72
2022/09/20 01:01:59;;;;;;;;;1.33;1.33;;;;;15.83;46.49;101904.91;5057055;28;45372;-68
2022/09/20 01:04:27;;;;;;;;;1.00;1.00;;;;;15.82;46.51;101911.19;5050745;28;45951;-67
2022/09/20 01:06:56;;;;;;;;;0.67;0.67;;;;;15.78;46.24;101894.91;5057448;28;45394;-67
2022/09/20 01:09:21;;;;;;;;;2.00;2.00;;;;;15.86;46.25;101916.66;5057414;28;45539;-73
2022/09/20 01:11:49;;;;;;;;;2.00;2.00;;;;;15.85;46.59;101915.72;5056467;28;56198;-71
2022/09/20 01:14:17;;;;;;;;;1.00;1.00;;;;;15.84;46.34;101920.22;5056847;28;45358;-72
2022/09/20 01:16:43;;;;;;;;;3.33;1.33;;;;;15.75;46.48;101898.38;5050775;28;45480;-73
2022/09/20 01:19:39;;;;;;;;;1.33;1.33;;;;;15.80;46.73;101906.63;5057157;28;45663;-72
2022/09/20 01:22:17;;;;;;;;;1.00;1.00;;;;;15.84;46.72;101914.81;5054232;28;46057;-71
2022/09/20 01:24:55;;;;;;;;;1.00;1.00;;;;;15.62;46.91;101872.97;5055364;28;45337;-69
2022/09/20 01:27:39;;;;;;;;;3.00;1.00;;;;;15.79;46.92;101902.13;5056835;28;45607;-67
2022/09/20 01:30:08;;;;;;;;;0.00;0.00;;;;;15.59;47.00;101874.66;5057101;28;45452;-72
2022/09/20 01:33:12;;;;;;;;;1.00;1.00;;;;;15.71;47.16;101901.00;5056379;28;46371;-69
2022/09/20 01:35:40;;;;;;;;;1.33;1.33;;;;;15.59;47.58;101886.34;5050344;28;45448;-67
2022/09/20 01:38:06;;;;;;;;;2.67;1.67;;;;;15.66;47.45;101901.78;5051003;28;45386;-70
2022/09/20 01:40:42;;;;;;;;;2.67;1.67;;;;;15.61;47.25;101897.16;5057479;28;45560;-75
2022/09/20 01:43:20;;;;;;;;;1.67;1.67;;;;;15.28;47.57;101831.75;5050989;28;46155;-68
2022/09/20 01:45:48;;;;;;;;;2.33;2.33;;;;;15.59;47.39;101882.72;5052189;28;45482;-70
2022/09/20 01:48:36;;;;;;;;;2.00;1.00;;;;;15.53;47.67;101877.22;5056868;28;45500;-70
2022/09/20 01:51:49;;;;;;;;;2.00;2.00;;;;;15.62;47.32;101894.50;5056966;28;45433;-73
2022/09/20 01:54:42;;;;;;;;;1.00;1.00;;;;;15.66;47.71;101907.16;5056402;28;46198;-72
2022/09/20 01:57:41;;;;;;;;;3.00;2.00;;;;;15.65;47.61;101894.56;5053269;28;45527;-71
2022/09/20 02:00:09;;;;;;;;;1.67;1.67;;;;;15.63;47.41;101888.22;5056405;28;45643;-69
2022/09/20 02:02:49;;;;;;;;;3.00;2.00;;;;;15.61;47.27;101879.22;5056475;28;45528;-71
2022/09/20 02:05:46;;;;;;;;;1.00;1.00;;;;;15.08;47.45;101789.97;5056827;28;45503;-70
2022/09/20 02:08:33;;;;;;;;;1.00;1.00;;;;;15.61;47.49;101883.69;5057289;28;45501;-68
2022/09/20 02:11:13;;;;;;;;;2.33;1.33;;;;;15.61;47.77;101881.91;5057421;28;45305;-69
2022/09/20 02:14:04;;;;;;;;;2.67;2.00;;;;;15.50;47.60;101882.53;5052077;28;45556;-67
2022/09/20 02:16:53;;;;;;;;;3.00;1.67;;;;;15.36;48.02;101858.88;5055963;28;45616;-67
2022/09/20 02:19:49;;;;;;;;;2.00;1.00;;;;;15.52;47.94;101894.25;5055652;28;45385;-67
2022/09/20 02:22:40;;;;;;;;;2.33;1.67;;;;;15.51;47.84;101890.66;5055894;28;45481;-69
2022/09/20 02:25:24;;;;;;;;;2.00;1.67;;;;;15.52;47.83;101887.06;5056828;28;45558;-67
2022/09/20 02:28:08;;;;;;;;;1.67;1.33;;;;;15.47;47.98;101895.03;5056555;28;45515;-67
2022/09/20 02:30:50;;;;;;;;;3.00;1.67;;;;;15.27;48.32;101853.25;5056425;28;45507;-69
2022/09/20 02:33:55;;;;;;;;;5.00;1.00;;;;;15.37;48.24;101892.97;5050032;28;45545;-76
2022/09/20 02:36:26;;;;;;;;;3.00;1.67;;;;;15.27;48.79;101894.53;5055909;28;45525;-69
2022/09/20 02:39:19;;;;;;;;;2.00;2.00;;;;;15.19;48.81;101901.50;5055599;28;45915;-69
2022/09/20 02:41:54;;;;;;;;;4.00;1.67;;;;;15.08;48.84;101897.66;5055659;28;45447;-67
2022/09/20 02:44:46;;;;;;;;;3.33;1.00;;;;;14.97;49.34;101907.22;5055916;28;45369;-67
2022/09/20 02:47:32;;;;;;;;;2.00;2.00;;;;;14.92;49.48;101907.06;5048209;28;45444;-73
2022/09/20 02:50:08;;;;;;;;;2.00;2.00;;;;;14.89;49.76;101907.88;5055356;28;46975;-70
2022/09/20 02:52:55;;;;;;;;;2.00;2.00;;;;;14.88;49.94;101906.09;5070930;28;45561;-67
2022/09/20 02:55:34;;;;;;;;;1.00;1.00;;;;;14.84;49.74;101904.16;5055334;28;45446;-72
2022/09/20 02:58:11;;;;;;;;;1.00;1.00;;;;;14.81;49.87;101898.69;5050528;28;45506;-71
2022/09/20 03:01:09;;;;;;;;;3.00;1.00;;;;;14.80;50.08;101907.66;5055341;28;45613;-67
2022/09/20 03:04:05;;;;;;;;;1.67;1.67;;;;;14.82;50.04;101896.94;5047130;28;45382;-76
2022/09/20 03:06:54;;;;;;;;;2.00;2.00;;;;;14.74;49.63;101889.56;5055594;28;45531;-67
2022/09/20 03:09:53;;;;;;;;;11.50;10.25;;;;;14.90;49.98;101900.75;5055584;28;45341;-68
2022/09/20 03:12:56;;;;;;;;;3.00;3.00;;;;;14.89;49.97;101904.28;5052589;28;46287;-69
2022/09/20 03:15:39;;;;;;;;;2.33;2.00;;;;;14.89;50.11;101904.28;5049889;28;45666;-72
2022/09/20 03:18:14;;;;;;;;;2.00;2.00;;;;;14.89;49.64;101901.59;5055228;28;45502;-68
2022/09/20 03:21:04;;;;;;;;;1.00;1.00;;;;;14.91;50.03;101900.78;5055254;28;45492;-67
2022/09/20 03:24:02;;;;;;;;;1.00;1.00;;;;;14.92;49.93;101907.97;5049834;28;46840;-67
2022/09/20 03:26:33;;;;;;;;;1.00;1.00;;;;;14.93;49.96;101907.13;5069251;27;45502;-72
2022/09/20 03:29:18;;;;;;;;;4.00;2.00;;;;;14.81;50.04;101876.28;5055025;28;45485;-65
2022/09/20 03:32:01;;;;;;;;;1.00;1.00;;;;;14.94;50.11;101905.31;5055347;28;45339;-69
2022/09/20 03:34:39;;;;;;;;;3.00;2.00;;;;;14.84;50.16;101885.34;5054767;28;46292;-68
2022/09/20 03:37:26;;;;;;;;;0.00;0.00;;;;;14.89;50.44;101899.81;5055369;28;45486;-69
2022/09/20 03:39:57;;;;;;;;;1.67;1.67;;;;;14.88;50.19;101900.72;5049679;28;45526;-68
2022/09/20 03:42:28;;;;;;;;;1.33;1.33;;;;;14.89;50.23;101902.50;5055206;28;45488;-67
2022/09/20 03:45:04;;;;;;;;;5.67;1.67;;;;;14.89;50.08;101904.28;5054748;28;45632;-67
2022/09/20 03:47:35;;;;;;;;;1.67;1.33;;;;;14.90;50.42;101907.03;5054338;28;45413;-69
2022/09/20 03:50:17;;;;;;;;;1.67;1.67;;;;;14.86;50.12;101897.03;5055458;28;45399;-67
2022/09/20 03:52:56;;;;;;;;;3.00;1.67;;;;;14.89;50.12;101899.81;5056079;28;45464;-68
2022/09/20 03:55:36;;;;;;;;;4.00;2.00;;;;;14.90;50.15;101895.38;5055860;28;45416;-67
2022/09/20 03:58:35;;;;;;;;;5.67;2.00;;;;;14.87;50.07;101895.28;5049338;28;45479;-72
2022/09/20 04:01:08;;;;;;;;;3.33;2.00;;;;;14.79;50.60;101894.16;5054457;28;45527;-67
2022/09/20 04:03:43;;;;;;;;;2.00;2.00;;;;;14.78;50.69;101892.31;5055056;28;45693;-67
2022/09/20 04:06:09;;;;;;;;;2.67;2.67;;;;;14.76;50.79;101894.97;5047946;28;46168;-66
2022/09/20 04:08:50;;;;;;;;;2.00;2.00;;;;;14.31;50.92;101829.16;5054326;28;45472;-67
2022/09/20 04:11:53;;;;;;;;;3.00;3.00;;;;;14.72;50.73;101893.97;5054341;28;45613;-74
2022/09/20 04:14:42;;;;;;;;;4.33;3.00;;;;;14.75;50.89;101895.88;5054527;28;45595;-67
2022/09/20 04:17:19;;;;;;;;;4.33;3.33;;;;;14.72;50.49;101895.78;5050415;28;46120;-72
2022/09/20 04:20:26;;;;;;;;;4.50;4.50;;;;;14.65;50.99;101891.06;5054158;28;45511;-67
2022/09/20 04:22:58;;;;;;;;;4.00;3.00;;;;;14.62;51.15;101897.28;5054085;28;45489;-67
2022/09/20 04:25:40;;;;;;;;;3.67;2.00;;;;;14.61;51.21;101899.94;5053978;28;45472;-66
2022/09/20 04:28:13;;;;;;;;;5.33;3.33;;;;;14.60;51.41;101904.41;5053186;28;45491;-66
2022/09/20 04:30:42;;;;;;;;;3.00;1.00;;;;;14.47;50.93;101870.84;5053870;28;45431;-66
2022/09/20 04:33:19;;;;;;;;;2.00;2.00;;;;;14.64;51.32;101906.31;5054475;28;45471;-67
2022/09/20 04:36:29;;;;;;;;;3.33;3.33;;;;;14.68;51.04;101902.84;5054638;28;45576;-68
2022/09/20 04:39:22;;;;;;;;;4.00;3.00;;;;;14.68;51.09;101901.91;5054615;28;45520;-71
2022/09/20 04:42:14;;;;;;;;;2.00;2.00;;;;;14.71;51.12;101902.00;5054065;28;45440;-72
2022/09/20 04:45:11;;;;;;;;;3.00;3.00;;;;;14.70;51.41;101900.16;5054001;28;45594;-71
2022/09/20 04:47:42;;;;;;;;;7.33;3.00;;;;;14.70;51.10;101910.94;5053825;28;45480;-67
2022/09/20 04:50:19;;;;;;;;;4.33;4.00;;;;;14.24;51.35;101837.94;5053392;28;45456;-69
2022/09/20 04:53:16;;;;;;;;;2.00;2.00;;;;;14.70;51.15;101917.25;5053712;28;45503;-66
2022/09/20 04:55:55;;;;;;;;;7.67;4.00;;;;;14.60;51.12;101890.97;5053600;28;45505;-67
2022/09/20 04:58:37;;;;;;;;;5.00;3.00;;;;;14.73;51.06;101919.09;5053771;28;45429;-67
2022/09/20 05:01:26;;;;;;;;;5.00;3.67;;;;;14.71;51.46;101919.03;5053399;28;45321;-67
2022/09/20 05:04:12;;;;;;;;;4.67;3.67;;;;;14.69;51.80;101919.91;5049804;28;45369;-66
2022/09/20 05:06:58;;;;;;;;;3.33;2.67;;;;;14.51;51.63;101898.72;5053503;28;45478;-69
2022/09/20 05:09:29;;;;;;;;;5.67;3.00;;;;;14.60;51.86;101930.38;5053453;28;45476;-66
2022/09/20 05:12:15;;;;;;;;;3.00;3.00;;;;;14.53;52.11;101924.78;5047089;28;45449;-67
2022/09/20 05:14:43;;;;;;;;;3.67;3.33;;;;;14.47;51.96;101931.75;5049657;28;45426;-67
2022/09/20 05:17:29;;;;;;;;;5.00;3.00;;;;;14.43;52.07;101928.06;5053594;28;45530;-66
2022/09/20 05:20:07;;;;;;;;;3.00;3.00;;;;;14.39;52.50;101926.19;5053656;28;45515;-69
2022/09/20 05:22:57;;;;;;;;;10.25;8.75;;;;;14.29;52.69;101911.53;5049178;28;46117;-67
2022/09/20 05:25:29;;;;;;;;;21.50;18.50;;;;;14.28;53.34;101906.13;5049357;28;45356;-68
2022/09/20 05:28:20;;;;;;;;;19.00;15.75;;;;;14.41;53.31;101918.16;5052471;28;45477;-68
2022/09/20 05:30:51;;;;;;;;;28.50;21.25;;;;;14.48;52.83;101925.53;5054155;28;45573;-67
2022/09/20 05:33:24;;;;;;;;;17.50;10.50;;;;;14.49;53.07;101930.94;5048071;28;45946;-67
2022/09/20 05:36:16;;;;;;;;;5.00;4.00;;;;;14.44;53.07;101903.03;5047951;28;45451;-66
2022/09/20 05:39:06;;;;;;;;;4.00;3.00;;;;;14.37;53.01;101887.59;5054401;28;45390;-69
2022/09/20 05:41:45;;;;;;;;;5.00;4.00;;;;;14.70;51.98;101919.00;5056438;28;45487;-67
2022/09/20 05:44:30;;;;;;;;;9.50;8.25;;;;;14.57;52.28;101882.78;5055764;28;45353;-68
2022/09/20 05:47:07;;;;;;;;;6.50;6.50;;;;;14.87;51.86;101923.09;5055697;28;45635;-69
2022/09/20 05:49:49;;;;;;;;;7.75;6.00;;;;;14.81;52.20;101897.78;5056087;28;45537;-71
2022/09/20 05:52:41;;;;;;;;;8.00;8.00;;;;;15.01;51.55;101925.25;5056431;28;45557;-72
2022/09/20 05:55:25;;;;;;;;;6.67;5.00;;;;;15.08;51.33;101927.25;5055466;28;46601;-67
2022/09/20 05:58:28;;;;;;;;;3.00;3.00;;;;;14.76;51.26;101861.78;5055480;28;45579;-71
2022/09/20 06:01:09;;;;;;;;;14.75;11.75;;;;;15.20;50.97;101932.03;5056044;28;45574;-69
2022/09/20 06:03:34;;;;;;;;;22.25;18.25;;;;;15.24;50.64;101932.13;5056734;28;45855;-67
2022/09/20 06:06:12;;;;;;;;;10.00;10.00;;;;;15.26;50.96;101927.72;5055797;28;46642;-73
2022/09/20 06:08:49;;;;;;;;;7.00;6.00;;;;;15.19;50.88;101917.66;5055640;28;45375;-74
2022/09/20 06:11:35;;;;;;;;;16.00;13.75;;;;;15.33;50.92;101938.63;5055900;28;45420;-72
2022/09/20 06:14:28;;;;;;;;;5.00;5.00;;;;;15.27;50.40;101926.84;5055563;28;45380;-74
2022/09/20 06:17:30;;;;;;;;;9.25;9.25;;;;;15.40;50.78;101941.53;5049308;28;45416;-73
2022/09/20 06:20:11;;;;;;;;;7.00;7.00;;;;;15.47;50.60;101948.00;5055040;28;45306;-74
2022/09/20 06:22:41;;;;;;;;;9.75;8.00;;;;;15.48;50.16;101948.03;5050438;28;45510;-72
2022/09/20 06:25:07;;;;;;;;;7.50;7.25;;;;;15.50;50.13;101942.69;5049634;28;45537;-73
2022/09/20 06:27:52;;;;;;;;;5.33;5.33;;;;;15.43;50.41;101944.31;5054896;28;45316;-74
2022/09/20 06:30:32;;;;;;;;;6.00;3.67;;;;;15.34;50.40;101946.75;5050819;28;45455;-71
2022/09/20 06:33:29;;;;;;;;;15.00;11.00;;;;;15.37;50.80;101945.94;5054736;28;45478;-69
2022/09/20 06:42:09;;;;;;;;;9.00;7.75;;;;;15.46;49.86;101960.56;5054484;28;45285;-74
2022/09/20 06:44:40;;;;;;;;;7.00;5.00;;;;;15.51;50.25;101962.44;5054476;28;45475;-75
2022/09/20 06:47:08;;;;;;;;;7.67;7.67;;;;;15.56;49.81;101955.38;5069961;28;45333;-74
2022/09/20 06:49:34;;;;;;;;;13.50;9.75;;;;;15.57;50.13;101952.72;5054146;28;46001;-74
2022/09/20 06:52:03;;;;;;;;;11.67;7.33;;;;;15.63;50.18;101962.75;5054242;28;45504;-71
2022/09/20 06:54:28;;;;;;;;;11.50;8.75;;;;;15.65;49.85;101961.91;5054793;28;45599;-68
2022/09/20 06:56:54;;;;;;;;;10.67;7.00;;;;;15.59;49.75;101953.69;5054758;28;45445;-65
2022/09/20 06:59:19;;;;;;;;;7.00;7.00;;;;;15.52;49.75;101954.41;5055163;28;45492;-71
2022/09/20 07:01:45;;;;;;;;;9.33;9.00;;;;;15.54;50.21;101962.53;5069627;28;54876;-71
2022/09/20 07:04:10;;;;;;;;;5.00;5.00;;;;;15.53;49.80;101953.53;5054482;28;45664;-73
2022/09/20 07:06:36;;;;;;;;;7.00;4.00;;;;;15.43;49.90;101947.00;5055038;28;45418;-72
2022/09/20 07:09:01;;;;;;;;;12.67;9.33;;;;;15.46;49.69;101951.56;5054459;28;46068;-73
2022/09/20 07:11:26;;;;;;;;;11.50;11.50;;;;;15.58;49.86;101959.06;5054710;28;45346;-75
2022/09/20 07:13:55;;;;;;;;;8.00;5.00;;;;;15.60;49.54;101963.59;5058018;28;45470;-69
2022/09/20 07:16:21;;;;;;;;;8.67;7.33;;;;;15.63;49.68;101970.84;5058534;28;45347;-73
2022/09/20 07:18:47;;;;;;;;;7.33;6.00;;;;;15.62;49.34;101961.88;5057468;28;45336;-75
2022/09/20 07:21:17;;;;;;;;;6.33;6.00;;;;;15.56;49.93;101968.84;5056811;28;45592;-74
2022/09/20 07:23:47;;;;;;;;;6.00;4.67;;;;;15.60;49.92;101974.34;5054009;28;45569;-72
2022/09/20 07:26:19;;;;;;;;;5.33;5.00;;;;;15.63;49.69;101974.44;5054382;28;45432;-70
2022/09/20 07:28:45;;;;;;;;;8.00;6.67;;;;;15.64;49.18;101980.72;5054270;28;45401;-69
2022/09/20 07:31:10;;;;;;;;;8.33;7.00;;;;;15.63;49.52;101979.84;5053901;28;45336;-73
2022/09/20 07:33:35;;;;;;;;;38.00;32.50;;;;;15.68;49.68;101984.44;5053961;28;45565;-68
2022/09/20 07:36:01;;;;;;;;;6.67;5.00;;;;;15.63;49.48;101989.72;5054450;28;45516;-70
2022/09/20 07:38:27;;;;;;;;;6.67;6.67;;;;;15.56;49.78;101991.34;5053897;28;46088;-75
2022/09/20 07:41:01;;;;;;;;;8.00;6.00;;;;;15.36;49.72;101973.72;5053962;28;45413;-68
2022/09/20 07:43:27;;;;;;;;;9.00;5.00;;;;;15.48;50.20;101996.50;5054050;28;45526;-70
2022/09/20 07:45:54;;;;;;;;;6.33;4.67;;;;;15.46;49.91;101991.97;5053997;28;45384;-75
2022/09/20 07:48:21;;;;;;;;;9.67;6.33;;;;;15.30;49.75;101972.69;5053655;28;45493;-74
2022/09/20 07:50:51;;;;;;;;;6.33;5.00;;;;;15.37;50.29;101981.84;5053525;28;45518;-75
2022/09/20 07:53:17;;;;;;;;;7.00;5.00;;;;;15.46;50.00;101979.41;5053876;28;45341;-73
2022/09/20 07:55:42;;;;;;;;;5.67;5.33;;;;;15.59;49.78;102010.28;5053335;28;45424;-70
2022/09/20 07:58:08;;;;;;;;;15.00;9.00;;;;;15.59;49.50;101995.88;5053206;28;45522;-74
2022/09/20 08:00:33;;;;;;;;;3.00;3.00;;;;;15.68;49.35;102003.31;5052745;28;58704;-72
2022/09/20 08:02:59;;;;;;;;;8.33;8.33;;;;;15.70;49.77;102006.94;5052697;28;52386;-74
2022/09/20 08:05:25;;;;;;;;;12.00;10.00;;;;;15.73;49.95;102001.63;5053700;28;45325;-74
2022/09/20 08:07:50;;;;;;;;;6.33;4.00;;;;;15.60;49.36;101979.75;5068776;28;46116;-74
2022/09/20 08:10:15;;;;;;;;;4.00;4.00;;;;;15.83;49.39;102010.00;5053145;28;46280;-74
2022/09/20 08:12:41;;;;;;;;;8.33;6.00;;;;;15.88;49.18;102012.81;5053306;28;45497;-72
2022/09/20 08:15:07;;;;;;;;;15.75;11.75;;;;;15.87;49.24;102008.28;5053602;28;45396;-74
2022/09/20 08:17:32;;;;;;;;;9.33;7.00;;;;;15.95;49.34;102016.56;5054120;28;45703;-73
2022/09/20 08:19:58;;;;;;;;;4.33;4.33;;;;;15.73;49.34;101975.59;5053535;28;45513;-69
2022/09/20 08:22:23;;;;;;;;;9.00;7.67;;;;;15.95;49.38;102012.09;5053204;28;45460;-71
2022/09/20 08:24:50;;;;;;;;;7.33;6.00;;;;;15.93;50.02;102015.63;5054025;28;45558;-69
2022/09/20 08:27:16;;;;;;;;;6.67;4.00;;;;;15.93;49.53;102018.31;5052851;28;46163;-69
2022/09/20 08:29:41;;;;;;;;;8.33;5.33;;;;;15.97;49.66;102025.59;5068575;28;45292;-72
2022/09/20 08:32:06;;;;;;;;;6.67;5.00;;;;;16.04;49.45;102016.81;5053372;28;45436;-74
2022/09/20 08:34:32;;;;;;;;;9.00;4.67;;;;;15.72;49.27;101960.28;5053161;28;45381;-72
2022/09/20 08:36:58;;;;;;;;;5.33;3.67;;;;;16.00;49.50;102017.59;5052876;28;45385;-73
2022/09/20 08:39:23;;;;;;;;;9.00;8.33;;;;;16.05;49.50;102015.91;5053307;28;45458;-74
2022/09/20 08:42:07;;;;;;;;;7.75;6.50;;;;;16.11;49.35;102020.56;5053221;28;45969;-73
2022/09/20 08:44:42;;;;;;;;;25.50;19.25;;;;;15.98;48.98;101995.09;5052303;28;45622;-68
2022/09/20 08:47:24;;;;;;;;;18.25;10.75;;;;;16.20;48.95;102026.16;5052502;28;47312;-72
2022/09/20 08:49:53;;;;;;;;;11.67;9.00;;;;;16.31;49.14;102037.22;5046238;28;45425;-74
2022/09/20 08:52:27;;;;;;;;;5.33;4.67;;;;;16.06;48.70;101979.09;5053256;28;45814;-74
2022/09/20 08:54:55;;;;;;;;;6.67;6.67;;;;;16.39;49.15;102035.59;5053359;28;45280;-73
2022/09/20 08:57:20;;;;;;;;;9.33;7.33;;;;;16.42;48.25;102011.41;5052572;28;46327;-68
2022/09/20 08:59:46;;;;;;;;;35.25;24.25;;;;;16.47;48.63;102009.72;5055695;28;45885;-72
2022/09/20 09:02:18;;;;;;;;;3.33;2.67;;;;;16.59;48.11;102033.34;5056667;28;45439;-69
2022/09/20 09:04:45;;;;;;;;;11.67;5.67;;;;;16.65;47.97;102035.28;5057284;28;45653;-73
2022/09/20 09:07:18;;;;;;;;;8.00;6.33;;;;;16.71;48.14;102040.81;5056567;28;46815;-74
2022/09/20 09:09:46;;;;;;;;;11.67;9.33;;;;;16.26;47.69;101950.81;5052995;28;45469;-70
2022/09/20 09:12:21;;;;;;;;;10.33;6.33;;;;;16.79;47.38;102024.78;5051217;28;45413;-71
2022/09/20 09:15:04;;;;;;;;;33.25;23.75;;;;;16.89;47.94;102041.22;5071085;28;45442;-70
2022/09/20 09:17:30;;;;;;;;;6.67;4.00;;;;;16.79;47.25;102014.88;5056008;28;45419;-72
2022/09/20 09:19:57;;;;;;;;;19.25;14.00;;;;;16.99;47.24;102034.22;5056205;28;45492;-72
2022/09/20 09:22:34;;;;;;;;;11.33;6.33;;;;;16.88;47.05;102016.94;5056116;28;45475;-71
2022/09/20 09:25:31;;;;;;;;;31.25;29.00;;;;;17.05;46.65;102038.88;5056657;28;46669;-72
2022/09/20 09:28:12;;;;;;;;;9.25;9.25;;;;;16.98;47.29;102015.28;5055069;28;45495;-74
2022/09/20 09:30:43;;;;;;;;;29.00;25.50;;;;;17.16;46.52;102030.97;5055770;28;46275;-75
2022/09/20 09:33:30;;;;;;;;;3.67;3.67;;;;;17.18;46.46;102021.13;5056222;28;45549;-74
2022/09/20 09:36:04;;;;;;;;;5.67;4.00;;;;;17.27;46.31;102032.09;5055929;28;45441;-71
2022/09/20 09:38:43;;;;;;;;;11.00;11.00;;;;;17.35;46.15;102035.84;5055362;28;46422;-71
2022/09/20 09:41:23;;;;;;;;;4.33;3.00;;;;;17.38;46.03;102035.00;5055877;28;45465;-73
2022/09/20 09:44:00;;;;;;;;;4.00;3.00;;;;;17.30;46.08;102016.84;5055552;28;45445;-73
2022/09/20 09:46:30;;;;;;;;;1.00;0.00;;;;;17.46;46.25;102033.38;5071596;28;45377;-74
2022/09/20 09:49:18;;;;;;;;;4.67;3.33;;;;;17.50;45.90;102028.03;5055146;28;46182;-75
2022/09/20 09:52:14;;;;;;;;;6.67;5.00;;;;;17.57;45.92;102022.72;5050929;28;45491;-75
2022/09/20 09:54:42;;;;;;;;;6.33;4.67;;;;;17.61;45.55;102028.22;5050385;28;45595;-73
2022/09/20 09:57:26;;;;;;;;;8.00;7.33;;;;;17.68;45.53;102021.13;5055261;28;45531;-72
2022/09/20 10:00:00;;;;;;;;;8.00;8.00;;;;;17.73;45.30;102016.72;5050087;28;47072;-74
2022/09/20 10:02:45;;;;;;;;;8.00;6.00;;;;;17.78;44.92;102025.81;5054912;28;45471;-73
2022/09/20 10:05:18;;;;;;;;;6.00;4.67;;;;;17.82;45.17;102026.78;5055246;28;45480;-73
2022/09/20 10:08:05;;;;;;;;;11.00;9.00;;;;;17.63;44.63;101983.22;5055217;28;45629;-71
2022/09/20 10:10:52;;;;;;;;;9.67;7.67;;;;;17.91;44.26;102028.78;5055315;28;45802;-73
2022/09/20 10:13:49;;;;;;;;;4.00;3.00;;;;;17.94;44.40;102020.72;5055247;28;45381;-73
2022/09/20 10:16:38;;;;;;;;;9.33;6.67;;;;;17.98;43.89;102025.28;5055199;28;45381;-74
2022/09/20 10:19:33;;;;;;;;;12.00;10.00;;;;;18.04;44.54;102025.38;5055485;28;45393;-71
2022/09/20 10:22:34;;;;;;;;;8.00;5.67;;;;;18.12;43.75;102022.81;5049360;28;46394;-72
2022/09/20 10:25:16;;;;;;;;;11.33;6.33;;;;;18.20;42.80;102022.03;5039900;28;45565;-73
2022/09/20 10:28:15;;;;;;;;;10.00;7.33;;;;;18.26;43.03;102023.91;5054714;28;45590;-71
2022/09/20 10:31:02;;;;;;;;;7.33;5.00;;;;;18.29;42.78;102020.34;5055399;28;45503;-74
2022/09/20 10:33:42;;;;;;;;;5.33;4.00;;;;;18.28;42.82;102014.03;5055104;28;45624;-72
2022/09/20 10:36:19;;;;;;;;;6.00;3.33;;;;;18.24;43.11;102013.06;5055283;28;45452;-74
2022/09/20 10:38:55;;;;;;;;;2.67;2.67;;;;;18.26;42.62;102006.78;5055130;28;45534;-74
2022/09/20 10:45:28;;;;;;;;;7.67;5.00;;;;;18.26;42.80;102006.78;5047711;28;45497;-72
2022/09/20 10:48:06;;;;;;;;;5.33;4.00;;;;;18.28;43.20;102005.91;5050149;28;45493;-75
2022/09/20 10:50:43;;;;;;;;;5.33;3.67;;;;;18.35;42.71;102006.91;5058667;28;45535;-74
2022/09/20 10:53:40;;;;;;;;;5.67;5.67;;;;;18.41;43.04;102001.56;5052207;28;45408;-70
2022/09/20 10:56:34;;;;;;;;;2.00;2.00;;;;;18.38;42.63;101997.03;5055009;28;46802;-69
2022/09/20 10:59:19;;;;;;;;;4.00;4.00;;;;;18.49;42.36;101998.97;5055254;28;45515;-74
2022/09/20 11:02:12;;;;;;;;;2.00;2.00;;;;;18.61;42.05;101999.16;5055351;28;45403;-73
2022/09/20 11:04:55;;;;;;;;;3.00;3.00;;;;;18.70;41.83;101998.38;5070764;28;45337;-73
2022/09/20 11:07:45;;;;;;;;;4.67;2.33;;;;;18.69;41.93;102001.94;5054406;28;46727;-70
2022/09/20 11:10:16;;;;;;;;;8.67;6.00;;;;;18.62;41.75;101973.00;5054303;28;45530;-72
2022/09/20 11:12:50;;;;;;;;;4.00;2.00;;;;;18.70;41.50;101982.13;5054295;28;45432;-71
2022/09/20 11:15:44;;;;;;;;;4.33;3.00;;;;;18.81;41.55;101988.59;5054902;28;45636;-71
2022/09/20 11:18:29;;;;;;;;;2.00;2.00;;;;;19.04;40.95;101993.38;5070044;28;47423;-72
2022/09/20 11:21:00;;;;;;;;;3.33;3.00;;;;;19.19;41.05;102001.69;5054555;28;45325;-71
2022/09/20 11:23:41;;;;;;;;;6.00;2.67;;;;;19.31;40.37;101990.06;5054451;28;45442;-71
2022/09/20 11:26:12;;;;;;;;;4.67;2.67;;;;;19.42;40.10;101982.03;5054309;28;45464;-72
2022/09/20 11:28:45;;;;;;;;;7.33;4.00;;;;;19.57;40.13;101986.69;5053503;28;45512;-70
2022/09/20 11:31:29;;;;;;;;;10.00;10.00;;;;;19.70;39.19;101991.34;5068781;27;45504;-73
2022/09/20 11:34:10;;;;;;;;;6.00;4.00;;;;;19.78;38.36;101984.22;5053821;28;45568;-72
2022/09/20 11:36:53;;;;;;;;;9.00;7.67;;;;;19.81;38.27;101981.50;5053530;28;45372;-73
2022/09/20 11:39:36;;;;;;;;;3.00;1.67;;;;;19.83;37.25;101966.19;5048747;28;46289;-73
2022/09/20 11:42:04;;;;;;;;;1.67;1.67;;;;;19.85;37.04;101958.06;5053664;28;45356;-73
2022/09/20 11:44:39;;;;;;;;;2.00;2.00;;;;;19.98;37.70;101973.50;5053680;28;45401;-72
2022/09/20 11:47:20;;;;;;;;;3.00;3.00;;;;;20.17;38.38;101981.78;5054317;28;45414;-74
2022/09/20 11:49:55;;;;;;;;;7.00;5.33;;;;;20.25;37.64;101975.47;5053782;28;45674;-74
2022/09/20 11:52:52;;;;;;;;;3.00;3.00;;;;;20.32;37.44;101976.44;5053728;28;45345;-70
2022/09/20 11:55:41;;;;;;;;;1.00;1.00;;;;;20.25;37.34;101958.31;5051407;28;45337;-71
2022/09/20 11:58:12;;;;;;;;;0.00;0.00;;;;;20.38;36.53;101986.44;5063112;27;45314;-74
2022/09/20 12:00:41;;;;;;;;;2.33;2.33;;;;;20.34;36.97;101984.56;5051135;28;46372;-72
2022/09/20 12:03:23;;;;;;;;;8.67;6.33;;;;;20.38;37.48;101987.31;5053592;28;45452;-72
2022/09/20 12:05:57;;;;;;;;;8.67;5.33;;;;;20.36;37.94;101970.13;5053876;28;45545;-74
2022/09/20 12:08:41;;;;;;;;;6.00;5.00;;;;;20.40;38.25;101977.38;5053897;28;45515;-73
2022/09/20 12:11:13;;;;;;;;;4.00;4.00;;;;;20.44;38.39;101981.00;5052461;28;45596;-69
2022/09/20 12:13:42;;;;;;;;;3.33;1.00;;;;;20.29;38.23;101965.53;5053513;28;45467;-73
2022/09/20 12:16:13;;;;;;;;;5.00;3.67;;;;;20.10;38.66;101966.38;5053299;28;45325;-73
2022/09/20 12:19:06;;;;;;;;;5.00;5.00;;;;;19.99;38.95;101969.00;5047196;28;45359;-71
2022/09/20 12:21:57;;;;;;;;;8.33;3.67;;;;;19.88;39.10;101975.25;5050218;28;47500;-71
2022/09/20 12:24:28;;;;;;;;;5.00;4.33;;;;;19.78;39.28;101956.16;5051052;28;45516;-68